sensor_id;sensor_type;location;lat;lon;timestamp;P1;durP1;ratioP1;P2;durP2;ratioP2
8944;SDS011;4507;40.232;29.132;2023-05-07T00:02:01;23.13;;;20.57;;
8944;SDS011;4507;40.232;29.132;2023-05-07T00:04:30;21.70;;;19.47;;
8944;SDS011;4507;40.232;29.132;2023-05-07T00:07:03;22.53;;;19.20;;
8944;SDS011;4507;40.232;29.132;2023-05-07T00:09:34;21.13;;;18.73;;
8944;SDS011;4507;40.232;29.132;2023-05-07T00:12:03;25.17;;;18.43;;
8944;SDS011;4507;40.232;29.132;2023-05-07T00:14:32;21.50;;;16.70;;
8944;SDS011;4507;40.232;29.132;2023-05-07T00:17:00;20.63;;;17.90;;
8944;SDS011;4507;40.232;29.132;2023-05-07T00:19:30;24.43;;;20.50;;
8944;SDS011;4507;40.232;29.132;2023-05-07T00:21:58;22.40;;;19.10;;
8944;SDS011;4507;40.232;29.132;2023-05-07T00:24:28;22.53;;;19.60;;
8944;SDS011;4507;40.232;29.132;2023-05-07T00:26:58;24.27;;;20.57;;
8944;SDS011;4507;40.232;29.132;2023-05-07T00:29:27;22.67;;;20.20;;
8944;SDS011;4507;40.232;29.132;2023-05-07T00:31:56;21.27;;;19.07;;
8944;SDS011;4507;40.232;29.132;2023-05-07T00:34:25;22.47;;;19.63;;
8944;SDS011;4507;40.232;29.132;2023-05-07T00:36:54;21.50;;;19.30;;
8944;SDS011;4507;40.232;29.132;2023-05-07T00:39:23;22.43;;;20.13;;
8944;SDS011;4507;40.232;29.132;2023-05-07T00:41:52;20.77;;;18.57;;
8944;SDS011;4507;40.232;29.132;2023-05-07T00:44:23;21.80;;;17.87;;
8944;SDS011;4507;40.232;29.132;2023-05-07T00:46:52;21.40;;;18.00;;
8944;SDS011;4507;40.232;29.132;2023-05-07T00:49:21;20.20;;;17.07;;
8944;SDS011;4507;40.232;29.132;2023-05-07T00:51:52;22.00;;;16.77;;
8944;SDS011;4507;40.232;29.132;2023-05-07T00:54:21;18.47;;;16.57;;
8944;SDS011;4507;40.232;29.132;2023-05-07T00:56:50;18.27;;;16.30;;
8944;SDS011;4507;40.232;29.132;2023-05-07T00:59:19;18.00;;;16.20;;
8944;SDS011;4507;40.232;29.132;2023-05-07T01:01:50;17.53;;;15.83;;
8944;SDS011;4507;40.232;29.132;2023-05-07T01:04:20;18.70;;;16.70;;
8944;SDS011;4507;40.232;29.132;2023-05-07T01:06:50;17.80;;;15.90;;
8944;SDS011;4507;40.232;29.132;2023-05-07T01:09:20;21.53;;;16.37;;
8944;SDS011;4507;40.232;29.132;2023-05-07T01:11:49;18.23;;;15.77;;
8944;SDS011;4507;40.232;29.132;2023-05-07T01:14:19;22.17;;;17.00;;
8944;SDS011;4507;40.232;29.132;2023-05-07T01:16:50;19.47;;;17.13;;
8944;SDS011;4507;40.232;29.132;2023-05-07T01:19:22;19.37;;;16.47;;
8944;SDS011;4507;40.232;29.132;2023-05-07T01:21:51;17.80;;;15.97;;
8944;SDS011;4507;40.232;29.132;2023-05-07T01:24:29;18.73;;;16.23;;
8944;SDS011;4507;40.232;29.132;2023-05-07T01:26:59;18.47;;;16.67;;
8944;SDS011;4507;40.232;29.132;2023-05-07T01:29:31;18.73;;;15.90;;
8944;SDS011;4507;40.232;29.132;2023-05-07T01:32:00;19.80;;;16.77;;
8944;SDS011;4507;40.232;29.132;2023-05-07T01:34:31;17.50;;;15.53;;
8944;SDS011;4507;40.232;29.132;2023-05-07T01:37:04;19.13;;;16.70;;
8944;SDS011;4507;40.232;29.132;2023-05-07T01:39:35;18.37;;;16.37;;
8944;SDS011;4507;40.232;29.132;2023-05-07T01:42:06;17.13;;;15.47;;
8944;SDS011;4507;40.232;29.132;2023-05-07T01:44:35;17.30;;;15.10;;
8944;SDS011;4507;40.232;29.132;2023-05-07T01:47:04;16.47;;;14.20;;
8944;SDS011;4507;40.232;29.132;2023-05-07T01:49:34;21.10;;;14.17;;
8944;SDS011;4507;40.232;29.132;2023-05-07T01:52:03;16.03;;;12.67;;
8944;SDS011;4507;40.232;29.132;2023-05-07T01:54:32;13.67;;;12.27;;
8944;SDS011;4507;40.232;29.132;2023-05-07T01:57:03;14.20;;;11.77;;
8944;SDS011;4507;40.232;29.132;2023-05-07T01:59:33;16.37;;;14.70;;
8944;SDS011;4507;40.232;29.132;2023-05-07T02:02:02;16.10;;;14.40;;
8944;SDS011;4507;40.232;29.132;2023-05-07T02:04:32;18.37;;;16.33;;
8944;SDS011;4507;40.232;29.132;2023-05-07T02:07:19;21.40;;;19.10;;
8944;SDS011;4507;40.232;29.132;2023-05-07T02:09:50;21.33;;;18.63;;
8944;SDS011;4507;40.232;29.132;2023-05-07T02:12:19;22.63;;;20.00;;
8944;SDS011;4507;40.232;29.132;2023-05-07T02:14:48;24.93;;;20.87;;
8944;SDS011;4507;40.232;29.132;2023-05-07T02:17:17;26.53;;;20.90;;
8944;SDS011;4507;40.232;29.132;2023-05-07T02:19:46;26.20;;;22.83;;
8944;SDS011;4507;40.232;29.132;2023-05-07T02:22:15;30.60;;;23.70;;
8944;SDS011;4507;40.232;29.132;2023-05-07T02:24:44;30.33;;;23.87;;
8944;SDS011;4507;40.232;29.132;2023-05-07T02:27:14;29.03;;;24.93;;
8944;SDS011;4507;40.232;29.132;2023-05-07T02:29:44;27.70;;;24.13;;
8944;SDS011;4507;40.232;29.132;2023-05-07T02:32:13;27.33;;;22.23;;
8944;SDS011;4507;40.232;29.132;2023-05-07T02:34:42;25.87;;;22.77;;
8944;SDS011;4507;40.232;29.132;2023-05-07T02:37:11;25.67;;;22.87;;
8944;SDS011;4507;40.232;29.132;2023-05-07T02:39:40;24.27;;;21.00;;
8944;SDS011;4507;40.232;29.132;2023-05-07T02:42:09;29.30;;;21.13;;
8944;SDS011;4507;40.232;29.132;2023-05-07T02:44:39;26.03;;;21.23;;
8944;SDS011;4507;40.232;29.132;2023-05-07T02:47:08;30.53;;;21.63;;
8944;SDS011;4507;40.232;29.132;2023-05-07T02:49:41;28.40;;;21.30;;
8944;SDS011;4507;40.232;29.132;2023-05-07T02:52:10;31.83;;;21.57;;
8944;SDS011;4507;40.232;29.132;2023-05-07T02:54:39;24.73;;;20.97;;
8944;SDS011;4507;40.232;29.132;2023-05-07T02:57:08;26.33;;;22.00;;
8944;SDS011;4507;40.232;29.132;2023-05-07T02:59:37;28.87;;;23.47;;
8944;SDS011;4507;40.232;29.132;2023-05-07T03:02:07;28.47;;;22.73;;
8944;SDS011;4507;40.232;29.132;2023-05-07T03:04:36;27.70;;;22.20;;
8944;SDS011;4507;40.232;29.132;2023-05-07T03:07:07;26.07;;;22.90;;
8944;SDS011;4507;40.232;29.132;2023-05-07T03:09:35;25.07;;;22.23;;
8944;SDS011;4507;40.232;29.132;2023-05-07T03:12:05;26.30;;;22.63;;
8944;SDS011;4507;40.232;29.132;2023-05-07T03:14:35;25.90;;;23.07;;
8944;SDS011;4507;40.232;29.132;2023-05-07T03:17:06;24.50;;;21.97;;
8944;SDS011;4507;40.232;29.132;2023-05-07T03:19:36;26.83;;;22.87;;
8944;SDS011;4507;40.232;29.132;2023-05-07T03:22:05;27.13;;;23.67;;
8944;SDS011;4507;40.232;29.132;2023-05-07T03:24:33;28.87;;;23.93;;
8944;SDS011;4507;40.232;29.132;2023-05-07T03:27:03;25.27;;;21.97;;
8944;SDS011;4507;40.232;29.132;2023-05-07T03:29:32;26.40;;;21.43;;
8944;SDS011;4507;40.232;29.132;2023-05-07T03:32:01;25.37;;;22.13;;
8944;SDS011;4507;40.232;29.132;2023-05-07T03:34:32;32.10;;;23.27;;
8944;SDS011;4507;40.232;29.132;2023-05-07T03:37:01;25.57;;;22.07;;
8944;SDS011;4507;40.232;29.132;2023-05-07T03:39:30;30.43;;;23.83;;
8944;SDS011;4507;40.232;29.132;2023-05-07T03:42:00;33.20;;;24.30;;
8944;SDS011;4507;40.232;29.132;2023-05-07T03:44:31;29.57;;;23.80;;
8944;SDS011;4507;40.232;29.132;2023-05-07T03:47:00;24.70;;;22.20;;
8944;SDS011;4507;40.232;29.132;2023-05-07T03:49:29;25.37;;;22.83;;
8944;SDS011;4507;40.232;29.132;2023-05-07T03:52:00;30.00;;;24.50;;
8944;SDS011;4507;40.232;29.132;2023-05-07T03:54:30;27.97;;;22.27;;
8944;SDS011;4507;40.232;29.132;2023-05-07T03:56:59;35.80;;;31.37;;
8944;SDS011;4507;40.232;29.132;2023-05-07T03:59:28;29.70;;;26.50;;
8944;SDS011;4507;40.232;29.132;2023-05-07T04:01:57;31.13;;;25.63;;
8944;SDS011;4507;40.232;29.132;2023-05-07T04:04:31;26.60;;;23.73;;
8944;SDS011;4507;40.232;29.132;2023-05-07T04:07:02;26.03;;;23.23;;
8944;SDS011;4507;40.232;29.132;2023-05-07T04:09:37;28.00;;;22.60;;
8944;SDS011;4507;40.232;29.132;2023-05-07T04:12:06;26.17;;;23.47;;
8944;SDS011;4507;40.232;29.132;2023-05-07T04:14:35;29.77;;;23.30;;
8944;SDS011;4507;40.232;29.132;2023-05-07T04:17:04;25.57;;;22.90;;
8944;SDS011;4507;40.232;29.132;2023-05-07T04:19:34;27.13;;;22.70;;
8944;SDS011;4507;40.232;29.132;2023-05-07T04:22:04;25.90;;;23.00;;
8944;SDS011;4507;40.232;29.132;2023-05-07T04:24:33;25.63;;;22.80;;
8944;SDS011;4507;40.232;29.132;2023-05-07T04:27:03;26.57;;;23.70;;
8944;SDS011;4507;40.232;29.132;2023-05-07T04:29:33;25.53;;;22.77;;
8944;SDS011;4507;40.232;29.132;2023-05-07T04:32:02;26.93;;;23.30;;
8944;SDS011;4507;40.232;29.132;2023-05-07T04:34:31;28.07;;;23.63;;
8944;SDS011;4507;40.232;29.132;2023-05-07T04:37:01;29.67;;;24.40;;
8944;SDS011;4507;40.232;29.132;2023-05-07T04:39:33;26.87;;;23.97;;
8944;SDS011;4507;40.232;29.132;2023-05-07T04:42:02;27.73;;;24.10;;
8944;SDS011;4507;40.232;29.132;2023-05-07T04:44:32;30.97;;;25.80;;
8944;SDS011;4507;40.232;29.132;2023-05-07T04:47:02;28.23;;;25.07;;
8944;SDS011;4507;40.232;29.132;2023-05-07T04:49:30;26.83;;;23.77;;
8944;SDS011;4507;40.232;29.132;2023-05-07T04:51:59;26.97;;;23.77;;
8944;SDS011;4507;40.232;29.132;2023-05-07T04:54:32;27.60;;;23.60;;
8944;SDS011;4507;40.232;29.132;2023-05-07T04:57:03;30.33;;;24.40;;
8944;SDS011;4507;40.232;29.132;2023-05-07T04:59:33;26.17;;;23.37;;
8944;SDS011;4507;40.232;29.132;2023-05-07T05:02:02;28.27;;;23.13;;
8944;SDS011;4507;40.232;29.132;2023-05-07T05:04:31;27.73;;;24.33;;
8944;SDS011;4507;40.232;29.132;2023-05-07T05:07:00;26.80;;;23.90;;
8944;SDS011;4507;40.232;29.132;2023-05-07T05:09:32;25.83;;;22.93;;
8944;SDS011;4507;40.232;29.132;2023-05-07T05:12:02;26.13;;;23.33;;
8944;SDS011;4507;40.232;29.132;2023-05-07T05:14:35;27.63;;;23.50;;
8944;SDS011;4507;40.232;29.132;2023-05-07T05:17:06;27.40;;;23.43;;
8944;SDS011;4507;40.232;29.132;2023-05-07T05:19:36;25.37;;;22.77;;
8944;SDS011;4507;40.232;29.132;2023-05-07T05:22:04;28.60;;;23.70;;
8944;SDS011;4507;40.232;29.132;2023-05-07T05:24:35;27.93;;;23.77;;
8944;SDS011;4507;40.232;29.132;2023-05-07T05:27:05;25.80;;;23.03;;
8944;SDS011;4507;40.232;29.132;2023-05-07T05:29:34;26.93;;;23.23;;
8944;SDS011;4507;40.232;29.132;2023-05-07T05:32:03;25.27;;;22.57;;
8944;SDS011;4507;40.232;29.132;2023-05-07T05:34:32;26.60;;;23.33;;
8944;SDS011;4507;40.232;29.132;2023-05-07T05:37:02;25.63;;;23.00;;
8944;SDS011;4507;40.232;29.132;2023-05-07T05:39:31;24.60;;;22.00;;
8944;SDS011;4507;40.232;29.132;2023-05-07T05:42:02;28.27;;;23.13;;
8944;SDS011;4507;40.232;29.132;2023-05-07T05:44:34;27.83;;;23.37;;
8944;SDS011;4507;40.232;29.132;2023-05-07T05:47:03;28.30;;;23.30;;
8944;SDS011;4507;40.232;29.132;2023-05-07T05:49:34;26.53;;;22.27;;
8944;SDS011;4507;40.232;29.132;2023-05-07T05:52:04;26.13;;;22.90;;
8944;SDS011;4507;40.232;29.132;2023-05-07T05:54:36;25.37;;;22.70;;
8944;SDS011;4507;40.232;29.132;2023-05-07T05:57:07;26.57;;;22.53;;
8944;SDS011;4507;40.232;29.132;2023-05-07T05:59:36;26.67;;;23.33;;
8944;SDS011;4507;40.232;29.132;2023-05-07T06:02:06;27.17;;;23.63;;
8944;SDS011;4507;40.232;29.132;2023-05-07T06:04:35;25.87;;;22.50;;
8944;SDS011;4507;40.232;29.132;2023-05-07T06:07:05;27.37;;;23.70;;
8944;SDS011;4507;40.232;29.132;2023-05-07T06:09:34;27.13;;;23.00;;
8944;SDS011;4507;40.232;29.132;2023-05-07T06:12:03;36.80;;;23.93;;
8944;SDS011;4507;40.232;29.132;2023-05-07T06:14:34;32.87;;;23.50;;
8944;SDS011;4507;40.232;29.132;2023-05-07T06:17:03;33.23;;;24.07;;
8944;SDS011;4507;40.232;29.132;2023-05-07T06:19:35;34.93;;;24.47;;
8944;SDS011;4507;40.232;29.132;2023-05-07T06:22:09;29.27;;;23.77;;
8944;SDS011;4507;40.232;29.132;2023-05-07T06:24:39;38.27;;;24.33;;
8944;SDS011;4507;40.232;29.132;2023-05-07T06:27:09;34.63;;;23.97;;
8944;SDS011;4507;40.232;29.132;2023-05-07T06:29:41;27.73;;;23.27;;
8944;SDS011;4507;40.232;29.132;2023-05-07T06:32:20;24.47;;;21.97;;
8944;SDS011;4507;40.232;29.132;2023-05-07T06:34:51;28.27;;;22.47;;
8944;SDS011;4507;40.232;29.132;2023-05-07T06:37:20;29.60;;;22.40;;
8944;SDS011;4507;40.232;29.132;2023-05-07T06:39:53;28.33;;;23.23;;
8944;SDS011;4507;40.232;29.132;2023-05-07T06:42:25;24.40;;;21.73;;
8944;SDS011;4507;40.232;29.132;2023-05-07T06:45:00;32.33;;;23.57;;
8944;SDS011;4507;40.232;29.132;2023-05-07T06:47:30;28.07;;;23.50;;
8944;SDS011;4507;40.232;29.132;2023-05-07T06:50:03;30.70;;;23.23;;
8944;SDS011;4507;40.232;29.132;2023-05-07T06:52:34;26.80;;;22.20;;
8944;SDS011;4507;40.232;29.132;2023-05-07T06:55:06;30.47;;;22.83;;
8944;SDS011;4507;40.232;29.132;2023-05-07T06:57:36;32.53;;;23.00;;
8944;SDS011;4507;40.232;29.132;2023-05-07T07:00:09;35.07;;;24.10;;
8944;SDS011;4507;40.232;29.132;2023-05-07T07:02:46;30.57;;;22.87;;
8944;SDS011;4507;40.232;29.132;2023-05-07T07:05:18;25.57;;;22.17;;
8944;SDS011;4507;40.232;29.132;2023-05-07T07:07:49;26.70;;;21.77;;
8944;SDS011;4507;40.232;29.132;2023-05-07T07:10:21;26.57;;;22.40;;
8944;SDS011;4507;40.232;29.132;2023-05-07T07:12:51;24.70;;;21.90;;
8944;SDS011;4507;40.232;29.132;2023-05-07T07:15:22;28.17;;;21.93;;
8944;SDS011;4507;40.232;29.132;2023-05-07T07:17:54;29.90;;;23.43;;
8944;SDS011;4507;40.232;29.132;2023-05-07T07:20:24;24.60;;;21.90;;
8944;SDS011;4507;40.232;29.132;2023-05-07T07:22:54;26.33;;;21.40;;
8944;SDS011;4507;40.232;29.132;2023-05-07T07:25:23;26.27;;;21.30;;
8944;SDS011;4507;40.232;29.132;2023-05-07T07:27:52;25.03;;;20.57;;
8944;SDS011;4507;40.232;29.132;2023-05-07T07:30:25;25.53;;;20.87;;
8944;SDS011;4507;40.232;29.132;2023-05-07T07:32:55;24.00;;;19.90;;
8944;SDS011;4507;40.232;29.132;2023-05-07T07:35:45;24.93;;;20.10;;
8944;SDS011;4507;40.232;29.132;2023-05-07T07:38:16;22.37;;;19.03;;
8944;SDS011;4507;40.232;29.132;2023-05-07T07:40:51;23.37;;;19.27;;
8944;SDS011;4507;40.232;29.132;2023-05-07T07:43:22;26.10;;;20.93;;
8944;SDS011;4507;40.232;29.132;2023-05-07T07:45:54;25.87;;;20.50;;
8944;SDS011;4507;40.232;29.132;2023-05-07T07:48:25;21.07;;;17.23;;
8944;SDS011;4507;40.232;29.132;2023-05-07T07:50:54;21.23;;;17.80;;
8944;SDS011;4507;40.232;29.132;2023-05-07T07:53:23;24.60;;;18.57;;
8944;SDS011;4507;40.232;29.132;2023-05-07T07:55:55;27.20;;;19.17;;
8944;SDS011;4507;40.232;29.132;2023-05-07T07:58:29;24.67;;;19.20;;
8944;SDS011;4507;40.232;29.132;2023-05-07T08:01:00;31.80;;;20.37;;
8944;SDS011;4507;40.232;29.132;2023-05-07T08:03:29;27.17;;;19.63;;
8944;SDS011;4507;40.232;29.132;2023-05-07T08:06:18;24.10;;;18.77;;
8944;SDS011;4507;40.232;29.132;2023-05-07T08:08:47;23.07;;;19.63;;
8944;SDS011;4507;40.232;29.132;2023-05-07T08:11:16;21.20;;;17.57;;
8944;SDS011;4507;40.232;29.132;2023-05-07T08:13:46;25.43;;;19.70;;
8944;SDS011;4507;40.232;29.132;2023-05-07T08:16:16;23.87;;;18.33;;
8944;SDS011;4507;40.232;29.132;2023-05-07T08:18:47;26.50;;;18.37;;
8944;SDS011;4507;40.232;29.132;2023-05-07T08:21:17;21.27;;;18.33;;
8944;SDS011;4507;40.232;29.132;2023-05-07T08:23:47;22.40;;;18.27;;
8944;SDS011;4507;40.232;29.132;2023-05-07T08:26:16;21.27;;;18.53;;
8944;SDS011;4507;40.232;29.132;2023-05-07T08:28:46;29.87;;;20.07;;
8944;SDS011;4507;40.232;29.132;2023-05-07T08:31:16;24.57;;;19.40;;
8944;SDS011;4507;40.232;29.132;2023-05-07T08:33:46;19.83;;;17.80;;
8944;SDS011;4507;40.232;29.132;2023-05-07T08:36:15;25.10;;;18.70;;
8944;SDS011;4507;40.232;29.132;2023-05-07T08:38:46;20.60;;;18.43;;
8944;SDS011;4507;40.232;29.132;2023-05-07T08:41:16;25.70;;;19.80;;
8944;SDS011;4507;40.232;29.132;2023-05-07T08:43:46;22.57;;;19.40;;
8944;SDS011;4507;40.232;29.132;2023-05-07T08:46:19;23.80;;;20.43;;
8944;SDS011;4507;40.232;29.132;2023-05-07T08:48:53;25.90;;;20.03;;
8944;SDS011;4507;40.232;29.132;2023-05-07T08:51:23;28.87;;;21.27;;
8944;SDS011;4507;40.232;29.132;2023-05-07T08:53:53;28.43;;;20.73;;
8944;SDS011;4507;40.232;29.132;2023-05-07T08:56:27;26.13;;;20.47;;
8944;SDS011;4507;40.232;29.132;2023-05-07T08:59:00;32.03;;;21.80;;
8944;SDS011;4507;40.232;29.132;2023-05-07T09:01:32;29.57;;;21.30;;
8944;SDS011;4507;40.232;29.132;2023-05-07T09:04:03;27.77;;;21.87;;
8944;SDS011;4507;40.232;29.132;2023-05-07T09:06:34;25.90;;;22.10;;
8944;SDS011;4507;40.232;29.132;2023-05-07T09:09:23;25.43;;;22.73;;
8944;SDS011;4507;40.232;29.132;2023-05-07T09:11:56;27.67;;;23.07;;
8944;SDS011;4507;40.232;29.132;2023-05-07T09:14:28;29.95;;;26.85;;
8944;SDS011;4507;40.232;29.132;2023-05-07T09:17:00;27.43;;;23.70;;
8944;SDS011;4507;40.232;29.132;2023-05-07T09:19:29;28.70;;;23.03;;
8944;SDS011;4507;40.232;29.132;2023-05-07T09:22:03;25.20;;;22.60;;
8944;SDS011;4507;40.232;29.132;2023-05-07T09:24:47;31.93;;;22.83;;
8944;SDS011;4507;40.232;29.132;2023-05-07T09:27:19;25.33;;;22.03;;
8944;SDS011;4507;40.232;29.132;2023-05-07T09:29:48;28.33;;;24.77;;
8944;SDS011;4507;40.232;29.132;2023-05-07T09:32:19;26.40;;;23.17;;
8944;SDS011;4507;40.232;29.132;2023-05-07T09:34:48;26.00;;;19.90;;
8944;SDS011;4507;40.232;29.132;2023-05-07T09:37:21;24.77;;;20.40;;
8944;SDS011;4507;40.232;29.132;2023-05-07T09:39:50;23.10;;;20.67;;
8944;SDS011;4507;40.232;29.132;2023-05-07T09:42:25;30.70;;;22.70;;
8944;SDS011;4507;40.232;29.132;2023-05-07T09:44:58;35.17;;;23.10;;
8944;SDS011;4507;40.232;29.132;2023-05-07T09:47:35;25.27;;;21.30;;
8944;SDS011;4507;40.232;29.132;2023-05-07T09:50:07;25.40;;;19.93;;
8944;SDS011;4507;40.232;29.132;2023-05-07T09:52:39;23.60;;;17.20;;
8944;SDS011;4507;40.232;29.132;2023-05-07T09:55:10;24.03;;;17.23;;
8944;SDS011;4507;40.232;29.132;2023-05-07T09:57:41;25.83;;;18.60;;
8944;SDS011;4507;40.232;29.132;2023-05-07T10:00:12;20.23;;;15.20;;
8944;SDS011;4507;40.232;29.132;2023-05-07T10:02:50;21.60;;;15.73;;
8944;SDS011;4507;40.232;29.132;2023-05-07T10:05:28;20.03;;;14.47;;
8944;SDS011;4507;40.232;29.132;2023-05-07T10:07:59;19.33;;;11.53;;
8944;SDS011;4507;40.232;29.132;2023-05-07T10:10:33;14.93;;;10.97;;
8944;SDS011;4507;40.232;29.132;2023-05-07T10:13:05;19.90;;;11.40;;
8944;SDS011;4507;40.232;29.132;2023-05-07T10:15:42;19.13;;;12.93;;
8944;SDS011;4507;40.232;29.132;2023-05-07T10:18:12;18.47;;;11.37;;
8944;SDS011;4507;40.232;29.132;2023-05-07T10:20:46;20.77;;;11.67;;
8944;SDS011;4507;40.232;29.132;2023-05-07T10:23:18;19.00;;;11.93;;
8944;SDS011;4507;40.232;29.132;2023-05-07T10:25:59;20.23;;;11.60;;
8944;SDS011;4507;40.232;29.132;2023-05-07T10:28:33;23.07;;;12.47;;
8944;SDS011;4507;40.232;29.132;2023-05-07T10:31:10;16.50;;;9.73;;
8944;SDS011;4507;40.232;29.132;2023-05-07T10:33:53;23.23;;;10.23;;
8944;SDS011;4507;40.232;29.132;2023-05-07T10:36:43;18.27;;;9.97;;
8944;SDS011;4507;40.232;29.132;2023-05-07T10:39:13;30.13;;;10.33;;
8944;SDS011;4507;40.232;29.132;2023-05-07T10:41:43;18.63;;;9.87;;
8944;SDS011;4507;40.232;29.132;2023-05-07T10:44:12;25.10;;;9.87;;
8944;SDS011;4507;40.232;29.132;2023-05-07T10:47:07;35.53;;;10.80;;
8944;SDS011;4507;40.232;29.132;2023-05-07T10:52:43;22.73;;;10.20;;
8944;SDS011;4507;40.232;29.132;2023-05-07T10:55:20;29.33;;;10.90;;
8944;SDS011;4507;40.232;29.132;2023-05-07T10:58:25;18.40;;;9.93;;
8944;SDS011;4507;40.232;29.132;2023-05-07T11:01:08;32.40;;;10.73;;
8944;SDS011;4507;40.232;29.132;2023-05-07T11:06:40;25.33;;;10.77;;
8944;SDS011;4507;40.232;29.132;2023-05-07T11:09:11;24.77;;;11.33;;
8944;SDS011;4507;40.232;29.132;2023-05-07T11:11:50;26.60;;;10.10;;
8944;SDS011;4507;40.232;29.132;2023-05-07T11:14:42;32.13;;;10.53;;
8944;SDS011;4507;40.232;29.132;2023-05-07T11:17:24;27.47;;;12.20;;
8944;SDS011;4507;40.232;29.132;2023-05-07T11:20:01;16.97;;;10.00;;
8944;SDS011;4507;40.232;29.132;2023-05-07T11:22:54;16.33;;;9.93;;
8944;SDS011;4507;40.232;29.132;2023-05-07T11:25:34;20.37;;;10.77;;
8944;SDS011;4507;40.232;29.132;2023-05-07T11:28:17;17.80;;;10.63;;
8944;SDS011;4507;40.232;29.132;2023-05-07T11:30:58;21.70;;;11.57;;
8944;SDS011;4507;40.232;29.132;2023-05-07T11:33:28;28.13;;;12.30;;
8944;SDS011;4507;40.232;29.132;2023-05-07T11:36:02;21.97;;;12.00;;
8944;SDS011;4507;40.232;29.132;2023-05-07T11:38:37;23.57;;;12.47;;
8944;SDS011;4507;40.232;29.132;2023-05-07T11:41:08;23.87;;;11.77;;
8944;SDS011;4507;40.232;29.132;2023-05-07T11:43:37;23.57;;;11.77;;
8944;SDS011;4507;40.232;29.132;2023-05-07T11:46:08;26.93;;;12.37;;
8944;SDS011;4507;40.232;29.132;2023-05-07T11:48:38;33.63;;;12.83;;
8944;SDS011;4507;40.232;29.132;2023-05-07T11:51:08;27.83;;;12.53;;
8944;SDS011;4507;40.232;29.132;2023-05-07T11:53:39;27.70;;;12.37;;
8944;SDS011;4507;40.232;29.132;2023-05-07T11:56:13;17.37;;;8.47;;
8944;SDS011;4507;40.232;29.132;2023-05-07T11:58:43;18.80;;;8.67;;
8944;SDS011;4507;40.232;29.132;2023-05-07T12:01:14;21.30;;;7.53;;
8944;SDS011;4507;40.232;29.132;2023-05-07T12:03:45;13.47;;;7.60;;
8944;SDS011;4507;40.232;29.132;2023-05-07T12:06:15;11.67;;;7.10;;
8944;SDS011;4507;40.232;29.132;2023-05-07T12:08:45;14.57;;;7.13;;
8944;SDS011;4507;40.232;29.132;2023-05-07T12:11:22;14.40;;;6.70;;
8944;SDS011;4507;40.232;29.132;2023-05-07T12:13:56;14.17;;;6.47;;
8944;SDS011;4507;40.232;29.132;2023-05-07T12:16:31;16.37;;;7.00;;
8944;SDS011;4507;40.232;29.132;2023-05-07T12:19:05;14.63;;;7.47;;
8944;SDS011;4507;40.232;29.132;2023-05-07T12:21:49;26.73;;;8.37;;
8944;SDS011;4507;40.232;29.132;2023-05-07T12:24:26;21.37;;;7.97;;
8944;SDS011;4507;40.232;29.132;2023-05-07T12:27:04;23.43;;;8.47;;
8944;SDS011;4507;40.232;29.132;2023-05-07T12:29:34;15.37;;;6.63;;
8944;SDS011;4507;40.232;29.132;2023-05-07T12:32:24;13.70;;;6.60;;
8944;SDS011;4507;40.232;29.132;2023-05-07T12:34:56;17.93;;;6.50;;
8944;SDS011;4507;40.232;29.132;2023-05-07T12:37:25;15.07;;;6.77;;
8944;SDS011;4507;40.232;29.132;2023-05-07T12:40:04;21.10;;;7.13;;
8944;SDS011;4507;40.232;29.132;2023-05-07T12:42:36;18.30;;;7.83;;
8944;SDS011;4507;40.232;29.132;2023-05-07T12:45:08;16.50;;;6.77;;
8944;SDS011;4507;40.232;29.132;2023-05-07T12:47:43;16.70;;;6.73;;
8944;SDS011;4507;40.232;29.132;2023-05-07T12:50:13;20.50;;;6.40;;
8944;SDS011;4507;40.232;29.132;2023-05-07T12:52:43;13.93;;;6.20;;
8944;SDS011;4507;40.232;29.132;2023-05-07T12:55:16;10.63;;;5.67;;
8944;SDS011;4507;40.232;29.132;2023-05-07T12:57:47;14.80;;;6.23;;
8944;SDS011;4507;40.232;29.132;2023-05-07T13:00:17;13.87;;;5.63;;
8944;SDS011;4507;40.232;29.132;2023-05-07T13:03:00;20.60;;;6.03;;
8944;SDS011;4507;40.232;29.132;2023-05-07T13:05:29;15.90;;;5.63;;
8944;SDS011;4507;40.232;29.132;2023-05-07T13:07:58;11.80;;;4.73;;
8944;SDS011;4507;40.232;29.132;2023-05-07T13:10:27;23.33;;;6.27;;
8944;SDS011;4507;40.232;29.132;2023-05-07T13:12:58;18.33;;;4.80;;
8944;SDS011;4507;40.232;29.132;2023-05-07T13:15:27;17.53;;;5.60;;
8944;SDS011;4507;40.232;29.132;2023-05-07T13:17:56;37.90;;;7.53;;
8944;SDS011;4507;40.232;29.132;2023-05-07T13:20:25;12.63;;;5.80;;
8944;SDS011;4507;40.232;29.132;2023-05-07T13:22:54;17.63;;;5.90;;
8944;SDS011;4507;40.232;29.132;2023-05-07T13:25:23;18.67;;;6.27;;
8944;SDS011;4507;40.232;29.132;2023-05-07T13:27:53;11.77;;;5.90;;
8944;SDS011;4507;40.232;29.132;2023-05-07T13:30:37;21.03;;;6.93;;
8944;SDS011;4507;40.232;29.132;2023-05-07T13:33:07;17.17;;;6.03;;
8944;SDS011;4507;40.232;29.132;2023-05-07T13:35:36;19.73;;;6.33;;
8944;SDS011;4507;40.232;29.132;2023-05-07T13:38:06;22.83;;;7.30;;
8944;SDS011;4507;40.232;29.132;2023-05-07T13:40:35;14.63;;;6.93;;
8944;SDS011;4507;40.232;29.132;2023-05-07T13:43:05;11.40;;;6.53;;
8944;SDS011;4507;40.232;29.132;2023-05-07T13:45:34;11.83;;;6.40;;
8944;SDS011;4507;40.232;29.132;2023-05-07T13:48:06;14.77;;;6.87;;
8944;SDS011;4507;40.232;29.132;2023-05-07T13:50:36;20.07;;;7.03;;
8944;SDS011;4507;40.232;29.132;2023-05-07T13:53:09;22.50;;;8.00;;
8944;SDS011;4507;40.232;29.132;2023-05-07T13:55:38;15.57;;;7.77;;
8944;SDS011;4507;40.232;29.132;2023-05-07T13:58:07;19.63;;;7.60;;
8944;SDS011;4507;40.232;29.132;2023-05-07T14:00:38;15.70;;;7.20;;
8944;SDS011;4507;40.232;29.132;2023-05-07T14:03:08;17.97;;;7.67;;
8944;SDS011;4507;40.232;29.132;2023-05-07T14:05:38;13.90;;;7.13;;
8944;SDS011;4507;40.232;29.132;2023-05-07T14:08:08;23.67;;;7.80;;
8944;SDS011;4507;40.232;29.132;2023-05-07T14:10:40;16.97;;;7.23;;
8944;SDS011;4507;40.232;29.132;2023-05-07T14:13:09;25.23;;;7.87;;
8944;SDS011;4507;40.232;29.132;2023-05-07T14:15:40;24.80;;;8.10;;
8944;SDS011;4507;40.232;29.132;2023-05-07T14:18:13;16.77;;;7.57;;
8944;SDS011;4507;40.232;29.132;2023-05-07T14:20:42;14.23;;;7.17;;
8944;SDS011;4507;40.232;29.132;2023-05-07T14:23:13;24.13;;;7.63;;
8944;SDS011;4507;40.232;29.132;2023-05-07T14:26:02;22.27;;;8.00;;
8944;SDS011;4507;40.232;29.132;2023-05-07T14:28:32;26.13;;;8.53;;
8944;SDS011;4507;40.232;29.132;2023-05-07T14:31:02;31.00;;;9.83;;
8944;SDS011;4507;40.232;29.132;2023-05-07T14:33:31;29.67;;;9.73;;
8944;SDS011;4507;40.232;29.132;2023-05-07T14:36:00;25.77;;;9.17;;
8944;SDS011;4507;40.232;29.132;2023-05-07T14:38:30;21.40;;;8.40;;
8944;SDS011;4507;40.232;29.132;2023-05-07T14:40:59;21.50;;;8.27;;
8944;SDS011;4507;40.232;29.132;2023-05-07T14:43:28;15.57;;;8.40;;
8944;SDS011;4507;40.232;29.132;2023-05-07T14:45:57;19.83;;;8.80;;
8944;SDS011;4507;40.232;29.132;2023-05-07T14:48:28;23.60;;;8.67;;
8944;SDS011;4507;40.232;29.132;2023-05-07T14:50:57;19.50;;;9.17;;
8944;SDS011;4507;40.232;29.132;2023-05-07T14:53:26;20.43;;;9.60;;
8944;SDS011;4507;40.232;29.132;2023-05-07T14:55:55;20.80;;;9.67;;
8944;SDS011;4507;40.232;29.132;2023-05-07T14:58:24;18.47;;;8.80;;
8944;SDS011;4507;40.232;29.132;2023-05-07T15:00:53;19.07;;;9.60;;
8944;SDS011;4507;40.232;29.132;2023-05-07T15:03:22;22.07;;;8.33;;
8944;SDS011;4507;40.232;29.132;2023-05-07T15:05:53;26.77;;;9.60;;
8944;SDS011;4507;40.232;29.132;2023-05-07T15:08:24;23.30;;;8.87;;
8944;SDS011;4507;40.232;29.132;2023-05-07T15:10:53;21.60;;;8.00;;